Campiña-No se requiere un especial cuidado respecto a la situación meteorológica.   -   No hay avisos

Informes METAR

 

LEZL - Sevilla, Spain
Distancia de la estación: ENE 8km
Actualización: 28/03/2020 12:30
Parcialmente nuboso
Parcialmente nuboso
 Viento de SSE
Viento: SSE 7 km/h
Temperatura: 18°C
Rocío: 8°C
Humedad: 52%
Barómetro: 1016 hPa
Nubes: Parcialmente nuboso
Visibilidad: 10 km
Detalles de las nubes: Parcialmente nuboso 1067 m
2020/03/28 11:30 LEZL 281130Z 16004KT 9999 SCT035 18/08 Q1016 NOSIG
LEMO - Morón, Spain
Distancia de la estación: SE 43km
Actualización: 28/03/2020 12:00
Parcialmente nuboso
Parcialmente nuboso
 Viento de SE
Viento: SE 11 km/h
Temperatura: 16°C
Rocío: 8°C
Humedad: 59%
Barómetro: 1016 hPa
Nubes: Parcialmente nuboso
Visibilidad: 10 km
Detalles de las nubes: Poco nuboso 762 m
Parcialmente nuboso 1036 m
2020/03/28 11:00 LEMO 281100Z 13006KT 100V210 9999 FEW025 SCT034 16/08 Q1016 NOSIG
LEJR - Jeréz, Spain
Distancia de la estación: S 71km
Actualización: 28/03/2020 12:30
Muy nuboso
Muy nuboso
 Viento de SE
Viento: SE 9 km/h
Temperatura: 19°C
Rocío: 9°C
Humedad: 52%
Barómetro: 1016 hPa
Nubes: Muy nuboso
Visibilidad: 10 km
Detalles de las nubes: Muy nuboso 1067 m
2020/03/28 11:30 LEJR 281130Z 13005KT 060V190 9999 BKN035 19/09 Q1016
 
LERT - Rota, Spain
Distancia de la estación: SSO 89km
Actualización: 28/03/2020 12:00
Parcialmente nuboso
Parcialmente nuboso
 Viento de S
Viento: S 15 km/h
Temperatura: 17°C
Rocío: 9°C
Humedad: 59%
Barómetro: 1016 hPa
Nubes: Parcialmente nuboso
Visibilidad: 10 km
Detalles de las nubes: Poco nuboso 762 m
Parcialmente nuboso 1219 m
2020/03/28 11:00 LERT 281100Z 17008KT 110V200 9999 FEW025 SCT040 17/09 Q1016 NOSIG
LEMG - Málaga, Spain
Distancia de la estación: ESE 157km
Actualización: 28/03/2020 12:30
Cubierto
Cubierto
 Viento de ESE
Viento: ESE 24 km/h
Temperatura: 15°C
Rocío: 10°C
Humedad: 72%
Barómetro: 1017 hPa
Nubes: Cubierto
Visibilidad: 10 km
Detalles de las nubes: Poco nuboso 549 m
Muy nuboso 853 m
Cubierto 1219 m
2020/03/28 11:30 LEMG 281130Z 11013KT 080V140 9999 FEW018 BKN028 OVC040 15/10 Q1017 NOSIG
LEBA - Córdoba, Spain
Distancia de la estación: ENE 115km
Actualización: 28/03/2020 12:30
Despejado
Despejado
 Viento de E
Viento: E 11 km/h
Temperatura: 17°C
Rocío: 7°C
Humedad: 52%
Barómetro: 1016 hPa
Resumen: Despejado
Visibilidad: mayor de 10 km
2020/03/28 11:30 LEBA 281130Z 08006KT 030V120 CAVOK 17/07 Q1016
 
LEGR - Granada, Spain
Distancia de la estación: E 198km
Actualización: 28/03/2020 12:30
Muy nuboso
Muy nuboso
 Viento de variable
Viento: variable 2 km/h
Temperatura: 15°C
Rocío: 5°C
Humedad: 51%
Barómetro: 1016 hPa
Nubes: Muy nuboso
Visibilidad: 10 km
Detalles de las nubes: Poco nuboso 975 m
Muy nuboso 1829 m
2020/03/28 11:30 LEGR 281130Z VRB01KT 9999 FEW032TCU BKN060 15/05 Q1016
LEAM - Almería, Spain
Distancia de la estación: E 326km
Actualización: 28/03/2020 12:30
Poco nuboso
Poco nuboso
 Viento de E
Viento: E 28 km/h
Temperatura: 18°C
Rocío: 6°C
Humedad: 46%
Barómetro: 1017 hPa
Nubes: Poco nuboso
Visibilidad: 10 km
Detalles de las nubes: Poco nuboso 1372 m
2020/03/28 11:30 LEAM 281130Z 08015KT 050V110 9999 FEW045 18/06 Q1017
LEMD - Madrid/Barajas, Spain
Distancia de la estación: NNE 402km
Actualización: 28/03/2020 12:30
Despejado
Despejado
 Viento de SO
Viento: SO 4 km/h
Temperatura: 13°C
Rocío: -3°C
Humedad: 33%
Barómetro: 1018 hPa
Resumen: Despejado
Visibilidad: mayor de 10 km
2020/03/28 11:30 LEMD 281130Z 22002KT CAVOK 13/M03 Q1018 NOSIG
 
LEVD - Valladolid, Spain
Distancia de la estación: N 492km
Actualización: 28/03/2020 12:30
Despejado
Despejado
 Viento de E
Viento: E 9 km/h
Temperatura: 12°C
Rocío: -2°C
Humedad: 38%
Barómetro: 1018 hPa
Resumen: Despejado
Visibilidad: mayor de 10 km
2020/03/28 11:30 LEVD 281130Z 08005KT 020V140 CAVOK 12/M02 Q1018
LEBL - Barcelona, Spain
Distancia de la estación: NE 816km
Actualización: 28/03/2020 12:30
Poco nuboso
Poco nuboso
 Viento de ESE
Viento: ESE 11 km/h
Temperatura: 16°C
Rocío: 5°C
Humedad: 48%
Barómetro: 1018 hPa
Nubes: Poco nuboso
Visibilidad: 10 km
Detalles de las nubes: Poco nuboso 1524 m
2020/03/28 11:30 LEBL 281130Z 11006KT 9999 FEW050 16/05 Q1018 NOSIG
LEVC - Valencia, Spain
Distancia de la estación: ENE 535km
Actualización: 28/03/2020 12:30
Poco nuboso
Poco nuboso
 Viento de NE
Viento: NE 11 km/h
Temperatura: 16°C
Rocío: 4°C
Humedad: 45%
Barómetro: 1018 hPa
Nubes: Poco nuboso
Visibilidad: 10 km
Detalles de las nubes: Poco nuboso 1067 m
2020/03/28 11:30 LEVC 281130Z 04006KT 350V120 9999 FEW035 16/04 Q1018 NOSIG